createdAt,value
2023-02-18T00:01:40.429Z,3.42
2023-02-18T00:04:08.265Z,2.95
2023-02-18T00:06:38.804Z,3.50
2023-02-18T00:09:08.937Z,3.22
2023-02-18T00:11:39.398Z,2.92
2023-02-18T00:14:09.246Z,3.20
2023-02-18T00:16:36.998Z,3.35
2023-02-18T00:19:07.447Z,3.30
2023-02-18T00:21:36.646Z,3.20
2023-02-18T00:24:04.960Z,3.60
2023-02-18T00:26:33.026Z,4.15
2023-02-18T00:29:02.111Z,3.60
2023-02-18T00:31:33.063Z,4.00
2023-02-18T00:34:01.137Z,3.95
2023-02-18T00:36:29.817Z,3.85
2023-02-18T00:38:59.356Z,5.05
2023-02-18T00:41:29.406Z,3.63
2023-02-18T00:43:57.393Z,4.07
2023-02-18T00:46:27.508Z,4.30
2023-02-18T00:48:55.961Z,3.70
2023-02-18T00:51:25.234Z,3.75
2023-02-18T00:53:53.468Z,4.18
2023-02-18T00:56:21.603Z,3.70
2023-02-18T00:58:49.765Z,4.10
2023-02-18T01:01:17.747Z,3.50
2023-02-18T01:03:47.330Z,4.05
2023-02-18T01:06:15.101Z,3.85
2023-02-18T01:08:43.704Z,3.80
2023-02-18T01:11:13.633Z,3.85
2023-02-18T01:13:42.168Z,3.80
2023-02-18T01:16:11.523Z,3.63
2023-02-18T01:18:40.525Z,3.80
2023-02-18T01:21:10.477Z,3.58
2023-02-18T01:23:39.428Z,3.47
2023-02-18T01:26:08.033Z,4.05
2023-02-18T01:28:36.460Z,4.10
2023-02-18T01:31:08.072Z,3.97
2023-02-18T01:33:36.051Z,3.70
2023-02-18T01:36:04.807Z,3.63
2023-02-18T01:38:33.847Z,3.00
2023-02-18T01:41:01.791Z,3.33
2023-02-18T01:43:29.822Z,3.30
2023-02-18T01:46:13.960Z,3.40
2023-02-18T01:48:44.954Z,3.33
2023-02-18T01:51:16.350Z,3.30
2023-02-18T01:53:50.584Z,3.42
2023-02-18T01:56:24.630Z,2.97
2023-02-18T01:58:55.990Z,3.45
2023-02-18T02:01:25.731Z,3.13
2023-02-18T02:03:53.488Z,3.25
2023-02-18T02:06:24.560Z,3.10
2023-02-18T02:08:57.404Z,3.05
2023-02-18T02:11:36.076Z,2.75
2023-02-18T02:14:17.051Z,2.47
2023-02-18T02:16:50.506Z,2.95
2023-02-18T02:19:59.392Z,2.85
2023-02-18T02:22:57.196Z,3.15
2023-02-18T02:25:43.840Z,3.00
2023-02-18T02:28:44.319Z,2.47
2023-02-18T02:31:34.506Z,2.70
2023-02-18T02:34:38.697Z,2.55
2023-02-18T02:37:15.602Z,3.08
2023-02-18T02:39:52.815Z,2.70
2023-02-18T02:42:30.803Z,2.80
2023-02-18T02:45:05.063Z,2.80
2023-02-18T02:47:38.174Z,2.95
2023-02-18T02:50:11.800Z,3.00
2023-02-18T02:52:46.006Z,3.00
2023-02-18T02:55:14.542Z,3.35
2023-02-18T02:57:51.690Z,3.10
2023-02-18T03:00:23.994Z,2.83
2023-02-18T03:03:14.509Z,2.70
2023-02-18T03:05:56.564Z,2.42
2023-02-18T03:08:40.061Z,2.70
2023-02-18T03:11:11.279Z,2.58
2023-02-18T03:13:54.577Z,2.70
2023-02-18T03:16:28.744Z,2.35
2023-02-18T03:19:03.796Z,2.67
2023-02-18T03:21:36.282Z,2.42
2023-02-18T03:24:10.151Z,3.00
2023-02-18T03:26:43.117Z,3.05
2023-02-18T03:29:13.002Z,2.58
2023-02-18T03:31:44.013Z,2.38
2023-02-18T03:34:15.397Z,3.13
2023-02-18T03:36:43.663Z,2.88
2023-02-18T03:39:16.499Z,3.22
2023-02-18T03:41:45.050Z,2.92
2023-02-18T03:44:14.145Z,2.60
2023-02-18T03:46:44.227Z,2.92
2023-02-18T03:49:13.631Z,2.75
2023-02-18T03:51:41.748Z,2.70
2023-02-18T03:54:09.548Z,2.97
2023-02-18T03:56:39.033Z,3.15
2023-02-18T03:59:06.824Z,3.10
2023-02-18T04:01:35.755Z,2.83
2023-02-18T04:04:03.986Z,2.53
2023-02-18T04:06:32.177Z,3.00
2023-02-18T04:08:59.878Z,3.15
2023-02-18T04:11:27.941Z,3.10
2023-02-18T04:13:56.985Z,2.90
2023-02-18T04:16:24.734Z,2.95
2023-02-18T04:18:52.439Z,2.97
2023-02-18T04:21:20.103Z,3.03
2023-02-18T04:23:47.792Z,3.08
2023-02-18T04:26:15.473Z,4.18
2023-02-18T04:28:43.314Z,3.05
2023-02-18T04:31:12.558Z,3.33
2023-02-18T04:33:40.370Z,3.50
2023-02-18T04:36:08.963Z,2.92
2023-02-18T04:38:36.972Z,3.45
2023-02-18T04:41:05.007Z,3.40
2023-02-18T04:43:32.693Z,3.55
2023-02-18T04:46:00.394Z,3.75
2023-02-18T04:48:29.537Z,4.40
2023-02-18T04:50:57.352Z,3.42
2023-02-18T04:53:25.041Z,3.88
2023-02-18T04:55:53.384Z,4.00
2023-02-18T04:58:21.494Z,4.88
2023-02-18T05:00:49.414Z,3.80
2023-02-18T05:03:17.261Z,4.75
2023-02-18T05:05:46.815Z,4.25
2023-02-18T05:08:16.220Z,4.13
2023-02-18T05:10:44.044Z,4.40
2023-02-18T05:13:11.770Z,4.40
2023-02-18T05:15:39.597Z,5.55
2023-02-18T05:18:07.836Z,5.30
2023-02-18T05:20:35.925Z,4.60
2023-02-18T05:23:05.003Z,5.60
2023-02-18T05:25:32.721Z,4.97
2023-02-18T05:28:00.409Z,5.32
2023-02-18T05:30:28.129Z,4.63
2023-02-18T05:32:55.920Z,5.15
2023-02-18T05:35:23.634Z,4.60
2023-02-18T05:37:51.365Z,4.82
2023-02-18T05:40:20.802Z,4.97
2023-02-18T05:42:48.514Z,4.70
2023-02-18T05:45:16.527Z,5.18
2023-02-18T05:47:44.205Z,5.10
2023-02-18T05:50:12.394Z,4.63
2023-02-18T05:52:40.173Z,4.93
2023-02-18T05:55:08.530Z,4.70
2023-02-18T05:57:37.619Z,5.25
2023-02-18T06:00:08.593Z,4.70
2023-02-18T06:02:36.424Z,5.15
2023-02-18T06:05:04.641Z,5.57
2023-02-18T06:07:32.589Z,5.65
2023-02-18T06:10:00.388Z,5.35
2023-02-18T06:12:28.094Z,5.45
2023-02-18T06:14:57.137Z,5.38
2023-02-18T06:17:24.895Z,5.88
2023-02-18T06:19:52.661Z,5.47
2023-02-18T06:22:20.364Z,6.82
2023-02-18T06:24:48.481Z,7.30
2023-02-18T06:27:16.265Z,7.13
2023-02-18T06:29:44.158Z,7.35
2023-02-18T06:32:13.396Z,6.32
2023-02-18T06:34:41.132Z,6.88
2023-02-18T06:37:08.837Z,5.82
2023-02-18T06:39:36.509Z,5.82
2023-02-18T06:42:04.402Z,6.00
2023-02-18T06:44:32.174Z,5.95
2023-02-18T06:47:00.176Z,6.20
2023-02-18T06:49:30.328Z,6.35
2023-02-18T06:51:58.123Z,6.65
2023-02-18T06:54:26.039Z,6.45
2023-02-18T06:56:53.833Z,5.68
2023-02-18T06:59:21.546Z,5.68
2023-02-18T07:01:49.303Z,5.35
2023-02-18T07:04:17.064Z,5.30
2023-02-18T07:06:46.134Z,5.15
2023-02-18T07:09:13.869Z,4.57
2023-02-18T07:11:41.638Z,4.63
2023-02-18T07:14:09.481Z,4.68
2023-02-18T07:16:37.404Z,4.57
2023-02-18T07:19:05.105Z,4.70
2023-02-18T07:21:32.861Z,4.40
2023-02-18T07:24:01.980Z,4.72
2023-02-18T07:26:29.716Z,4.47
2023-02-18T07:28:57.451Z,4.03
2023-02-18T07:31:25.320Z,7.22
2023-02-18T07:33:53.201Z,4.65
2023-02-18T07:36:21.023Z,4.18
2023-02-18T07:38:48.720Z,3.80
2023-02-18T07:41:20.247Z,4.30
2023-02-18T07:43:48.427Z,4.40
2023-02-18T07:46:16.799Z,4.35
2023-02-18T07:48:44.552Z,3.72
2023-02-18T07:51:13.624Z,3.92
2023-02-18T07:53:41.452Z,4.25
2023-02-18T07:56:09.814Z,4.07
2023-02-18T07:58:40.599Z,4.60
2023-02-18T08:01:09.624Z,4.65
2023-02-18T08:03:38.071Z,5.47
2023-02-18T08:06:07.599Z,3.85
2023-02-18T08:08:37.132Z,3.70
2023-02-18T08:11:17.016Z,4.88
2023-02-18T08:13:48.197Z,4.53
2023-02-18T08:16:16.496Z,4.40
2023-02-18T08:18:44.316Z,3.90
2023-02-18T08:21:12.096Z,4.07
2023-02-18T08:23:40.637Z,4.13
2023-02-18T08:26:09.384Z,4.80
2023-02-18T08:28:37.437Z,3.97
2023-02-18T08:31:06.929Z,4.35
2023-02-18T08:33:35.080Z,3.67
2023-02-18T08:36:02.829Z,4.13
2023-02-18T08:38:30.628Z,4.10
2023-02-18T08:41:03.760Z,4.18
2023-02-18T08:43:31.486Z,4.32
2023-02-18T08:45:59.923Z,4.05
2023-02-18T08:48:29.739Z,4.32
2023-02-18T08:50:57.656Z,4.03
2023-02-18T08:53:25.662Z,3.97
2023-02-18T08:55:53.418Z,4.68
2023-02-18T08:58:21.258Z,4.32
2023-02-18T09:00:50.652Z,4.28
2023-02-18T09:03:20.815Z,4.38
2023-02-18T09:05:52.085Z,4.78
2023-02-18T09:08:21.991Z,4.78
2023-02-18T09:10:51.518Z,4.28
2023-02-18T09:13:21.239Z,4.00
2023-02-18T09:15:59.989Z,4.22
2023-02-18T09:18:29.913Z,4.22
2023-02-18T09:21:02.595Z,4.07
2023-02-18T09:23:33.846Z,4.03
2023-02-18T09:26:06.597Z,4.43
2023-02-18T09:28:36.525Z,4.13
2023-02-18T09:31:10.357Z,4.47
2023-02-18T09:33:41.384Z,4.00
2023-02-18T09:36:12.735Z,5.15
2023-02-18T09:38:41.746Z,3.72
2023-02-18T09:41:15.530Z,4.40
2023-02-18T09:43:47.941Z,5.70
2023-02-18T09:46:21.921Z,3.97
2023-02-18T09:48:52.066Z,4.15
2023-02-18T09:51:23.290Z,3.72
2023-02-18T09:53:52.853Z,3.72
2023-02-18T09:56:24.020Z,3.85
2023-02-18T09:58:52.699Z,3.88
2023-02-18T10:01:29.634Z,3.53
2023-02-18T10:04:01.408Z,4.22
2023-02-18T10:06:33.924Z,4.25
2023-02-18T10:09:04.348Z,3.72
2023-02-18T10:11:36.961Z,4.95
2023-02-18T10:14:10.305Z,4.35
2023-02-18T10:16:38.089Z,4.25
2023-02-18T10:19:12.306Z,3.78
2023-02-18T10:21:41.640Z,3.50
2023-02-18T10:24:19.338Z,3.97
2023-02-18T10:26:47.110Z,3.80
2023-02-18T10:29:19.411Z,3.47
2023-02-18T10:31:56.642Z,3.97
2023-02-18T10:34:41.484Z,4.07
2023-02-18T10:37:24.512Z,3.70
2023-02-18T10:40:04.942Z,4.28
2023-02-18T10:42:45.586Z,4.53
2023-02-18T10:45:26.428Z,3.65
2023-02-18T10:48:08.213Z,4.00
2023-02-18T10:50:40.741Z,4.25
2023-02-18T10:53:14.600Z,4.28
2023-02-18T10:55:44.350Z,4.60
2023-02-18T10:58:28.385Z,4.05
2023-02-18T11:00:56.349Z,4.32
2023-02-18T11:03:25.674Z,4.50
2023-02-18T11:05:57.015Z,4.50
2023-02-18T11:08:28.830Z,4.50
2023-02-18T11:10:57.424Z,4.40
2023-02-18T11:13:28.255Z,5.43
2023-02-18T11:15:59.950Z,6.00
2023-02-18T11:18:41.184Z,5.38
2023-02-18T11:21:22.778Z,5.65
2023-02-18T11:23:53.875Z,5.97
2023-02-18T11:26:28.810Z,5.60
2023-02-18T11:29:01.740Z,6.25
2023-02-18T11:31:41.002Z,6.28
2023-02-18T11:34:17.215Z,5.55
2023-02-18T11:36:45.965Z,5.50
2023-02-18T11:39:24.351Z,5.72
2023-02-18T11:41:56.671Z,6.05
2023-02-18T11:44:28.323Z,5.75
2023-02-18T11:47:01.919Z,5.40
2023-02-18T11:49:30.912Z,5.35
2023-02-18T11:52:07.220Z,5.55
2023-02-18T11:54:36.430Z,5.93
2023-02-18T11:57:06.948Z,5.97
2023-02-18T11:59:38.128Z,6.03
2023-02-18T12:02:27.064Z,5.70
2023-02-18T12:05:02.368Z,5.43
2023-02-18T12:07:36.420Z,4.90
2023-02-18T12:10:12.454Z,5.60
2023-02-18T12:12:47.323Z,4.80
2023-02-18T12:15:19.306Z,5.28
2023-02-18T12:18:12.528Z,4.95
2023-02-18T12:21:02.538Z,5.20
2023-02-18T12:23:35.836Z,5.00
2023-02-18T12:26:12.056Z,5.00
2023-02-18T12:28:53.112Z,5.13
2023-02-18T12:31:37.761Z,6.03
2023-02-18T12:34:23.772Z,5.22
2023-02-18T12:37:02.345Z,4.40
2023-02-18T12:39:48.333Z,4.30
2023-02-18T12:42:35.202Z,4.25
2023-02-18T12:45:32.925Z,3.72
2023-02-18T12:48:22.103Z,3.72
2023-02-18T12:51:06.603Z,3.72
2023-02-18T12:53:53.662Z,3.90
2023-02-18T12:56:45.600Z,3.35
2023-02-18T12:59:24.685Z,4.13
2023-02-18T13:02:07.236Z,3.90
2023-02-18T13:04:48.794Z,3.25
2023-02-18T13:07:46.355Z,3.50
2023-02-18T13:10:39.934Z,3.80
2023-02-18T13:13:13.237Z,3.83
2023-02-18T13:15:45.201Z,3.80
2023-02-18T13:18:17.953Z,3.63
2023-02-18T13:20:50.224Z,3.80
2023-02-18T13:23:21.076Z,3.75
2023-02-18T13:25:57.171Z,3.60
2023-02-18T13:28:31.891Z,3.80
2023-02-18T13:31:16.033Z,3.35
2023-02-18T13:33:51.620Z,3.30
2023-02-18T13:36:34.929Z,3.50
2023-02-18T13:39:07.774Z,3.35
2023-02-18T13:41:40.418Z,3.40
2023-02-18T13:44:26.570Z,3.60
2023-02-18T13:46:58.809Z,3.60
2023-02-18T13:49:32.851Z,3.20
2023-02-18T13:52:02.866Z,3.28
2023-02-18T13:54:34.656Z,2.95
2023-02-18T13:57:04.732Z,3.28
2023-02-18T13:59:36.826Z,3.38
2023-02-18T14:02:34.229Z,2.33
2023-02-18T14:05:21.310Z,3.15
2023-02-18T14:07:52.589Z,3.50
2023-02-18T14:10:33.598Z,3.70
2023-02-18T14:13:38.779Z,3.28
2023-02-18T14:16:07.130Z,2.75
2023-02-18T14:18:57.387Z,2.90
2023-02-18T14:21:43.205Z,3.38
2023-02-18T14:24:12.896Z,4.75
2023-02-18T14:26:45.453Z,3.35
2023-02-18T14:29:28.709Z,2.58
2023-02-18T14:32:01.646Z,3.58
2023-02-18T14:35:09.293Z,3.80
2023-02-18T14:38:08.027Z,3.25
2023-02-18T14:40:51.871Z,4.68
2023-02-18T14:43:34.108Z,4.15
2023-02-18T14:46:11.009Z,4.05
2023-02-18T14:49:02.534Z,3.75
2023-02-18T14:51:34.942Z,3.10
2023-02-18T14:54:07.773Z,3.60
2023-02-18T14:56:39.294Z,2.75
2023-02-18T14:59:07.461Z,3.58
2023-02-18T15:01:36.611Z,12.75
2023-02-18T15:04:05.670Z,4.22
2023-02-18T15:06:36.800Z,4.93
2023-02-18T15:09:15.656Z,3.85
2023-02-18T15:11:45.963Z,3.22
2023-02-18T15:14:19.959Z,3.75
2023-02-18T15:16:48.403Z,3.67
2023-02-18T15:19:19.594Z,4.45
2023-02-18T15:21:50.617Z,4.35
2023-02-18T15:24:26.050Z,3.40
2023-02-18T15:26:55.464Z,4.05
2023-02-18T15:29:26.437Z,3.15
2023-02-18T15:31:57.540Z,3.28
2023-02-18T15:34:37.746Z,3.40
2023-02-18T15:37:09.179Z,3.90
2023-02-18T15:39:38.573Z,3.63
2023-02-18T15:42:11.176Z,3.85
2023-02-18T15:44:39.270Z,3.60
2023-02-18T15:47:10.476Z,3.47
2023-02-18T15:49:39.836Z,3.38
2023-02-18T15:52:09.812Z,3.25
2023-02-18T15:54:40.665Z,3.00
2023-02-18T15:57:13.433Z,3.70
2023-02-18T15:59:46.097Z,3.45
2023-02-18T16:02:18.944Z,3.92
2023-02-18T16:04:51.941Z,3.75
2023-02-18T16:07:26.114Z,3.80
2023-02-18T16:10:19.473Z,4.35
2023-02-18T16:12:51.048Z,4.35
2023-02-18T16:15:27.224Z,4.15
2023-02-18T16:17:55.825Z,3.58
2023-02-18T16:20:31.811Z,3.97
2023-02-18T16:25:43.744Z,3.90
2023-02-18T16:28:16.716Z,3.90
2023-02-18T16:30:46.290Z,4.20
2023-02-18T16:33:14.239Z,4.20
2023-02-18T16:35:49.845Z,3.67
2023-02-18T16:38:21.271Z,4.72
2023-02-18T16:40:49.653Z,5.38
2023-02-18T16:43:19.050Z,4.40
2023-02-18T16:45:49.963Z,4.38
2023-02-18T16:48:21.732Z,5.60
2023-02-18T16:50:51.487Z,4.72
2023-02-18T16:53:21.132Z,4.45
2023-02-18T16:55:50.717Z,5.88
2023-02-18T16:58:18.818Z,4.60
2023-02-18T17:00:47.603Z,4.68
2023-02-18T17:03:15.785Z,4.97
2023-02-18T17:05:43.554Z,4.10
2023-02-18T17:08:23.010Z,4.60
2023-02-18T17:10:51.400Z,5.13
2023-02-18T17:13:20.331Z,4.57
2023-02-18T17:15:49.326Z,4.93
2023-02-18T17:18:17.153Z,5.38
2023-02-18T17:20:45.892Z,5.15
2023-02-18T17:23:15.907Z,6.60
2023-02-18T17:25:45.570Z,5.13
2023-02-18T17:28:13.464Z,6.13
2023-02-18T17:30:42.711Z,5.95
2023-02-18T17:33:15.330Z,5.50
2023-02-18T17:35:43.112Z,6.05
2023-02-18T17:38:12.557Z,5.25
2023-02-18T17:40:40.654Z,4.95
2023-02-18T17:43:14.530Z,5.30
2023-02-18T17:45:46.444Z,5.18
2023-02-18T17:48:14.221Z,5.07
2023-02-18T17:50:42.689Z,5.07
2023-02-18T17:53:11.679Z,5.38
2023-02-18T17:55:41.184Z,5.10
2023-02-18T17:58:10.706Z,4.95
2023-02-18T18:00:41.628Z,4.32
2023-02-18T18:03:09.966Z,5.38
2023-02-18T18:05:39.815Z,5.00
2023-02-18T18:08:08.343Z,4.72
2023-02-18T18:10:38.627Z,5.95
2023-02-18T18:13:15.486Z,5.43
2023-02-18T18:15:44.818Z,5.30
2023-02-18T18:18:14.335Z,4.90
2023-02-18T18:20:45.141Z,5.00
2023-02-18T18:23:14.617Z,6.85
2023-02-18T18:25:44.210Z,7.63
2023-02-18T18:28:14.084Z,6.60
2023-02-18T18:30:44.686Z,5.05
2023-02-18T18:33:17.277Z,5.00
2023-02-18T18:35:47.463Z,5.53
2023-02-18T18:38:15.558Z,5.75
2023-02-18T18:40:43.850Z,5.45
2023-02-18T18:43:18.943Z,5.32
2023-02-18T18:45:47.311Z,5.53
2023-02-18T18:48:15.285Z,4.97
2023-02-18T18:50:43.436Z,5.25
2023-02-18T18:53:18.809Z,5.25
2023-02-18T18:55:47.342Z,5.60
2023-02-18T18:58:20.543Z,4.93
2023-02-18T19:00:50.866Z,5.20
2023-02-18T19:03:19.418Z,5.00
2023-02-18T19:05:49.056Z,5.40
2023-02-18T19:08:17.917Z,4.78
2023-02-18T19:10:47.628Z,5.28
2023-02-18T19:13:19.064Z,5.00
2023-02-18T19:15:48.036Z,5.10
2023-02-18T19:18:17.834Z,4.55
2023-02-18T19:20:47.367Z,4.93
2023-02-18T19:23:15.249Z,4.28
2023-02-18T19:25:44.396Z,4.07
2023-02-18T19:28:13.709Z,4.85
2023-02-18T19:30:43.491Z,4.95
2023-02-18T19:33:14.314Z,4.82
2023-02-18T19:35:43.846Z,4.97
2023-02-18T19:38:13.672Z,4.78
2023-02-18T19:40:41.513Z,4.82
2023-02-18T19:43:09.764Z,4.88
2023-02-18T19:45:43.257Z,4.82
2023-02-18T19:48:12.106Z,5.50
2023-02-18T19:50:41.592Z,5.07
2023-02-18T19:53:10.036Z,4.93
2023-02-18T19:55:37.907Z,4.93
2023-02-18T19:58:05.774Z,4.57
2023-02-18T20:00:33.642Z,5.50
2023-02-18T20:03:02.754Z,4.85
2023-02-18T20:05:30.607Z,4.80
2023-02-18T20:07:58.406Z,5.30
2023-02-18T20:10:26.288Z,5.05
2023-02-18T20:12:54.733Z,4.65
2023-02-18T20:15:23.008Z,4.75
2023-02-18T20:17:51.288Z,4.20
2023-02-18T20:20:21.001Z,4.65
2023-02-18T20:22:48.884Z,4.60
2023-02-18T20:25:16.878Z,4.57
2023-02-18T20:27:59.869Z,4.57
2023-02-18T20:30:28.927Z,4.80
2023-02-18T20:32:56.935Z,5.07
2023-02-18T20:35:26.348Z,4.57
2023-02-18T20:37:54.110Z,4.38
2023-02-18T20:40:21.907Z,4.70
2023-02-18T20:42:49.731Z,4.47
2023-02-18T20:45:17.788Z,4.30
2023-02-18T20:47:45.655Z,4.47
2023-02-18T20:50:13.396Z,5.47
2023-02-18T20:52:43.288Z,12.25
2023-02-18T20:55:11.040Z,5.93
2023-02-18T20:57:38.757Z,4.85
2023-02-18T21:00:07.612Z,5.10
2023-02-18T21:02:35.814Z,3.92
2023-02-18T21:05:03.956Z,3.63
2023-02-18T21:07:31.878Z,4.45
2023-02-18T21:10:01.017Z,4.03
2023-02-18T21:12:28.843Z,3.90
2023-02-18T21:14:56.628Z,4.28
2023-02-18T21:17:24.381Z,4.28
2023-02-18T21:19:52.138Z,3.60
2023-02-18T21:22:20.028Z,4.00
2023-02-18T21:24:50.425Z,4.72
2023-02-18T21:27:19.510Z,4.60
2023-02-18T21:29:47.220Z,3.75
2023-02-18T21:32:15.084Z,3.85
2023-02-18T21:34:42.917Z,4.10
2023-02-18T21:37:10.675Z,4.38
2023-02-18T21:39:38.611Z,3.97
2023-02-18T21:42:06.694Z,4.10
2023-02-18T21:44:42.317Z,4.30
2023-02-18T21:47:11.641Z,4.32
2023-02-18T21:49:39.598Z,3.70
2023-02-18T21:52:09.450Z,4.45
2023-02-18T21:54:40.434Z,4.60
2023-02-18T21:57:10.682Z,3.80
2023-02-18T21:59:40.649Z,4.32
2023-02-18T22:02:13.506Z,4.30
2023-02-18T22:04:41.487Z,4.22
2023-02-18T22:07:09.508Z,4.75
2023-02-18T22:09:37.927Z,5.00
2023-02-18T22:12:06.521Z,4.25
2023-02-18T22:14:34.554Z,4.32
2023-02-18T22:17:03.783Z,5.00
2023-02-18T22:19:31.605Z,5.00
2023-02-18T22:22:00.352Z,4.38
2023-02-18T22:24:28.210Z,4.28
2023-02-18T22:26:56.054Z,4.57
2023-02-18T22:29:24.246Z,5.35
2023-02-18T22:31:53.341Z,4.40
2023-02-18T22:34:23.275Z,5.00
2023-02-18T22:36:50.989Z,5.60
2023-02-18T22:39:19.363Z,5.35
2023-02-18T22:41:47.387Z,4.63
2023-02-18T22:44:17.165Z,5.18
2023-02-18T22:46:45.655Z,4.32
2023-02-18T22:49:13.586Z,4.88
2023-02-18T22:51:44.288Z,4.57
2023-02-18T22:54:13.858Z,4.50
2023-02-18T22:56:42.075Z,5.03
2023-02-18T22:59:12.151Z,5.00
2023-02-18T23:01:41.643Z,4.93
2023-02-18T23:04:11.136Z,4.22
2023-02-18T23:06:40.486Z,4.72
2023-02-18T23:09:12.484Z,4.03
2023-02-18T23:11:40.265Z,3.65
2023-02-18T23:14:21.212Z,4.35
2023-02-18T23:17:08.499Z,4.57
2023-02-18T23:19:37.807Z,4.15
2023-02-18T23:22:05.961Z,4.22
2023-02-18T23:24:36.500Z,4.50
2023-02-18T23:27:05.090Z,4.10
2023-02-18T23:29:32.886Z,4.55
2023-02-18T23:32:01.020Z,4.07
2023-02-18T23:34:29.390Z,4.28
2023-02-18T23:36:58.158Z,3.88
2023-02-18T23:39:26.453Z,4.22
2023-02-18T23:41:55.484Z,4.15
2023-02-18T23:44:25.205Z,3.75
2023-02-18T23:46:53.269Z,4.15
2023-02-18T23:49:23.695Z,3.80
2023-02-18T23:51:52.576Z,3.50
2023-02-18T23:54:21.195Z,4.03
2023-02-18T23:56:49.092Z,3.90
2023-02-18T23:59:18.176Z,3.35
